Towaoc, Colorado
Current Conditions -  °F | °C
As of 8:53 PM on Sunday 23 Nov 2014 (Local Time) from KCEZ Reporting Station
Clear Clear  
Wind Chill: 19°   Ceiling: Unl
Heat Index: 25°   Visibility: 10mi
Dew Point: 13°   Wind: 5mph
Humidity: 60%   Direction: 340°NNW
Pressure: 30.12"   Gusts: NA
Location:  37.2°N, 108.73°W
Report Text: KCEZ 240353Z AUTO 34004KT 10SM CLR M04/M11 A3012 RMK AO2 SLP206 T10391106
Loading
Personal Weather Stations






























Interactive Weather Map New forecast layout! Learn more

10-Day Weather Forecast

Advertisements
Track Severe Weather on mobile